Time;durP1;ratioP1;P1;durP2;ratioP2;P2;SDS_P1;SDS_P2;PMS_P1;PMS_P2;Temp;Humidity;BMP_temperature;BMP_pressure;BME280_temperature;BME280_humidity;BME280_pressure;Samples;Min_cycle;Max_cycle;Signal;HPM_P1;HPM_P2
2022/03/22 00:01:01;;;;;;;7.30;4.78;;;11.80;57.30;;;;;;4979456;28;20166;-84
2022/03/22 00:03:26;;;;;;;7.07;4.53;;;11.80;57.50;;;;;;4973787;28;20250;-84
2022/03/22 00:05:52;;;;;;;8.67;4.53;;;11.80;57.50;;;;;;4998269;28;20030;-84
2022/03/22 00:08:18;;;;;;;7.20;4.60;;;11.70;57.70;;;;;;4983307;28;20509;-84
2022/03/22 00:10:45;;;;;;;6.93;4.13;;;11.70;57.60;;;;;;4973196;28;20038;-84
2022/03/22 00:13:10;;;;;;;6.37;4.27;;;11.60;57.70;;;;;;4997715;28;20018;-85
2022/03/22 00:15:37;;;;;;;7.38;4.53;;;11.60;57.80;;;;;;5011814;28;20068;-85
2022/03/22 00:18:03;;;;;;;7.65;4.35;;;11.50;57.80;;;;;;4979134;28;20745;-85
2022/03/22 00:20:28;;;;;;;7.03;4.20;;;11.50;58.00;;;;;;4982599;28;20025;-84
2022/03/22 00:22:54;;;;;;;6.40;4.43;;;11.50;58.00;;;;;;4998838;28;20099;-84
2022/03/22 00:25:21;;;;;;;6.53;4.22;;;11.40;58.00;;;;;;4983340;28;20103;-85
2022/03/22 00:27:51;;;;;;;7.85;4.28;;;11.40;58.00;;;;;;4977540;28;20049;-85
2022/03/22 00:30:30;;;;;;;7.70;4.17;;;11.40;58.20;;;;;;5015118;28;20314;-84
2022/03/22 00:33:01;;;;;;;6.15;4.22;;;11.30;58.60;;;;;;4977629;28;20399;-85
2022/03/22 00:35:36;;;;;;;6.22;4.25;;;11.20;58.20;;;;;;5020364;28;20036;-85
2022/03/22 00:38:16;;;;;;;6.43;4.05;;;11.20;58.60;;;;;;4966719;28;20034;-84
2022/03/22 00:40:42;;;;;;;7.00;4.20;;;11.20;58.50;;;;;;4988728;28;20021;-84
2022/03/22 00:43:09;;;;;;;6.20;4.03;;;11.10;58.50;;;;;;4972962;28;20240;-85
2022/03/22 00:45:37;;;;;;;7.20;4.25;;;11.00;58.50;;;;;;4999689;28;20430;-84
2022/03/22 00:48:04;;;;;;;6.70;4.20;;;11.00;58.60;;;;;;5002958;28;20433;-85
2022/03/22 00:50:36;;;;;;;6.82;4.32;;;11.00;58.80;;;;;;4989397;28;20117;-84
2022/03/22 00:53:04;;;;;;;6.88;4.00;;;10.90;59.10;;;;;;4983838;28;20171;-85
2022/03/22 00:55:30;;;;;;;7.40;4.20;;;10.90;58.90;;;;;;5014530;28;20056;-85
2022/03/22 00:57:56;;;;;;;6.35;4.03;;;10.90;58.90;;;;;;4987125;28;20021;-84
2022/03/22 01:00:24;;;;;;;6.63;4.10;;;10.80;58.90;;;;;;4999364;28;20032;-85
2022/03/22 01:02:52;;;;;;;6.05;4.18;;;10.80;59.00;;;;;;4971450;28;20065;-85
2022/03/22 01:05:19;;;;;;;6.40;3.87;;;10.70;59.00;;;;;;4989634;28;20018;-84
2022/03/22 01:07:58;;;;;;;7.85;4.47;;;10.70;59.10;;;;;;4971522;28;20124;-84
2022/03/22 01:10:25;;;;;;;6.82;4.13;;;10.70;59.80;;;;;;4993485;28;20037;-85
2022/03/22 01:12:51;;;;;;;7.53;4.20;;;10.60;59.10;;;;;;4987025;28;20029;-85
2022/03/22 01:15:24;;;;;;;6.25;3.90;;;10.50;59.10;;;;;;4981134;28;20014;-85
2022/03/22 01:17:54;;;;;;;6.53;4.47;;;10.50;59.50;;;;;;4987561;28;20038;-84
2022/03/22 01:20:22;;;;;;;6.38;3.95;;;10.50;59.40;;;;;;4996863;28;20018;-85
2022/03/22 01:22:49;;;;;;;8.30;4.35;;;10.40;59.30;;;;;;4985452;28;20034;-84
2022/03/22 01:25:18;;;;;;;7.07;4.32;;;10.40;59.50;;;;;;4978611;28;20109;-84
2022/03/22 01:27:47;;;;;;;7.10;4.15;;;10.30;59.60;;;;;;4990377;28;20117;-84
2022/03/22 01:30:15;;;;;;;7.23;4.40;;;10.30;59.70;;;;;;4971050;28;20141;-85
2022/03/22 01:32:44;;;;;;;6.32;4.00;;;10.30;59.70;;;;;;4996566;28;20526;-84
2022/03/22 01:35:10;;;;;;;7.00;4.50;;;10.20;59.70;;;;;;4994290;28;20268;-84
2022/03/22 01:37:37;;;;;;;7.57;4.47;;;10.20;59.80;;;;;;4997939;28;20605;-85
2022/03/22 01:40:04;;;;;;;8.67;4.73;;;10.20;60.00;;;;;;4961444;28;20605;-85
2022/03/22 01:42:30;;;;;;;7.20;4.50;;;10.10;60.20;;;;;;4995850;28;20037;-84
2022/03/22 01:44:55;;;;;;;8.10;4.93;;;10.10;60.10;;;;;;4986739;28;20041;-84
2022/03/22 01:47:25;;;;;;;6.27;4.13;;;10.00;60.00;;;;;;4982124;28;20065;-85
2022/03/22 01:49:51;;;;;;;8.15;5.00;;;10.00;60.00;;;;;;4986025;28;20092;-84
2022/03/22 01:52:20;;;;;;;8.70;4.57;;;9.90;60.20;;;;;;4990903;28;20042;-85
2022/03/22 01:54:49;;;;;;;8.10;4.38;;;9.90;60.60;;;;;;4979051;28;20042;-85
2022/03/22 01:57:14;;;;;;;6.83;4.10;;;9.90;60.70;;;;;;4979133;28;20034;-84
2022/03/22 01:59:40;;;;;;;7.93;4.50;;;9.90;60.80;;;;;;5005047;28;20037;-85
2022/03/22 02:07:36;;;;;;;7.50;4.25;;;9.80;60.70;;;;;;4991507;28;20049;-85
2022/03/22 02:10:03;;;;;;;7.15;4.85;;;9.80;60.70;;;;;;4985666;28;20565;-84
2022/03/22 02:12:29;;;;;;;8.10;4.23;;;9.80;60.90;;;;;;5014432;28;20037;-85
2022/03/22 02:14:54;;;;;;;8.15;4.78;;;9.70;60.70;;;;;;4982447;28;20026;-84
2022/03/22 02:17:20;;;;;;;9.27;4.97;;;9.70;60.80;;;;;;5017619;28;20073;-84
2022/03/22 02:19:47;;;;;;;8.10;4.72;;;9.70;60.90;;;;;;4982762;28;20034;-84
2022/03/22 02:22:16;;;;;;;7.72;4.47;;;9.60;60.90;;;;;;4982311;28;20576;-84
2022/03/22 02:24:42;;;;;;;7.57;4.33;;;9.60;61.20;;;;;;5014914;28;20466;-85
2022/03/22 02:27:09;;;;;;;7.70;4.65;;;9.60;60.90;;;;;;4985796;28;20326;-85
2022/03/22 02:29:35;;;;;;;7.13;4.13;;;9.50;61.10;;;;;;5001985;28;20687;-84
2022/03/22 02:32:07;;;;;;;8.10;4.47;;;9.50;61.10;;;;;;4989524;28;20022;-84
2022/03/22 02:34:36;;;;;;;6.43;4.32;;;9.50;61.50;;;;;;4996022;28;20029;-84
2022/03/22 02:37:03;;;;;;;7.28;4.43;;;9.40;61.30;;;;;;4987486;28;20393;-85
2022/03/22 02:39:28;;;;;;;7.53;4.20;;;9.40;61.20;;;;;;4990687;28;20022;-84
2022/03/22 02:41:54;;;;;;;7.07;4.23;;;9.40;61.30;;;;;;5003136;28;20032;-84
2022/03/22 02:44:20;;;;;;;8.25;4.20;;;9.30;61.30;;;;;;5013226;28;20224;-85
2022/03/22 02:46:47;;;;;;;6.47;4.37;;;9.30;61.10;;;;;;5009565;28;20376;-84
2022/03/22 02:49:13;;;;;;;6.97;4.55;;;9.30;62.20;;;;;;4988409;28;20037;-84
2022/03/22 02:51:39;;;;;;;5.70;3.78;;;9.20;61.40;;;;;;4990928;28;20044;-84
2022/03/22 02:54:05;;;;;;;7.65;4.60;;;9.20;61.40;;;;;;4974997;28;20033;-85
2022/03/22 02:56:30;;;;;;;7.03;4.57;;;9.10;61.40;;;;;;4999266;28;20166;-85
2022/03/22 02:58:56;;;;;;;7.28;4.05;;;9.10;61.60;;;;;;4971220;28;20350;-84
2022/03/22 03:01:22;;;;;;;6.93;3.83;;;9.10;61.70;;;;;;4985250;28;20259;-84
2022/03/22 03:03:48;;;;;;;9.27;4.47;;;9.10;61.70;;;;;;4983369;28;20052;-84
2022/03/22 03:06:13;;;;;;;6.93;3.87;;;9.00;61.80;;;;;;4997559;28;20033;-85
2022/03/22 03:08:39;;;;;;;7.22;4.18;;;9.00;61.90;;;;;;4980673;28;20041;-84
2022/03/22 03:11:05;;;;;;;6.73;4.10;;;9.00;61.90;;;;;;5015178;28;20061;-85
2022/03/22 03:14:38;;;;;;;6.75;4.15;;;8.90;61.90;;;;;;4984217;28;20249;-84
2022/03/22 03:16:17;;;;;;;7.43;4.18;;;8.90;62.00;;;;;;4975690;28;20434;-85
2022/03/22 03:18:42;;;;;;;5.83;4.07;;;8.90;62.00;;;;;;5000677;28;20084;-85
2022/03/22 03:21:08;;;;;;;6.45;4.00;;;8.90;62.10;;;;;;5014647;28;20037;-85
2022/03/22 03:23:34;;;;;;;8.13;4.07;;;8.80;62.20;;;;;;4972717;28;20163;-84
2022/03/22 03:25:59;;;;;;;6.65;4.05;;;8.80;62.20;;;;;;4986468;28;20116;-84
2022/03/22 03:28:25;;;;;;;7.73;3.93;;;8.80;62.30;;;;;;4997188;28;20054;-84
2022/03/22 03:30:50;;;;;;;7.22;4.30;;;8.70;62.20;;;;;;4969613;28;20034;-84
2022/03/22 03:33:16;;;;;;;6.87;4.20;;;8.70;62.30;;;;;;4987196;28;20052;-84
2022/03/22 03:35:42;;;;;;;7.13;4.03;;;8.70;62.30;;;;;;5001335;28;20372;-84
2022/03/22 03:38:08;;;;;;;7.03;3.92;;;8.60;62.30;;;;;;4977529;28;20482;-85
2022/03/22 03:43:18;;;;;;;6.32;3.72;;;8.50;62.40;;;;;;5011057;28;20040;-84
2022/03/22 03:48:28;;;;;;;8.10;4.32;;;8.50;62.50;;;;;;4985800;28;20176;-84
2022/03/22 03:50:54;;;;;;;6.78;4.03;;;8.50;62.50;;;;;;4998769;28;20044;-84
2022/03/22 03:53:19;;;;;;;6.70;3.80;;;8.40;62.50;;;;;;4988732;28;20922;-85
2022/03/22 03:55:45;;;;;;;7.43;4.23;;;8.40;62.50;;;;;;4990674;28;20089;-85
2022/03/22 03:58:11;;;;;;;6.23;3.93;;;8.40;62.70;;;;;;4980753;28;20269;-84
2022/03/22 04:00:36;;;;;;;7.03;4.25;;;8.40;62.80;;;;;;4985116;28;20143;-85
2022/03/22 04:03:02;;;;;;;7.30;4.47;;;8.30;62.80;;;;;;4980711;28;20030;-84
2022/03/22 04:05:28;;;;;;;6.57;3.93;;;8.30;63.00;;;;;;5005104;28;20037;-85
2022/03/22 04:07:53;;;;;;;5.70;3.72;;;8.20;62.90;;;;;;5016171;28;20030;-85
2022/03/22 04:10:19;;;;;;;6.73;4.10;;;8.20;63.00;;;;;;4972402;28;20402;-84
2022/03/22 04:12:44;;;;;;;6.88;4.20;;;8.20;63.00;;;;;;4991694;28;20113;-84
2022/03/22 04:15:10;;;;;;;5.87;3.77;;;8.20;63.10;;;;;;4996250;28;20100;-84
2022/03/22 04:17:38;;;;;;;7.07;4.20;;;8.20;63.20;;;;;;4967286;28;20232;-85
2022/03/22 04:20:04;;;;;;;6.25;3.92;;;8.10;63.30;;;;;;4983668;28;20030;-85
2022/03/22 04:22:30;;;;;;;5.90;3.57;;;8.10;63.30;;;;;;4996571;28;20061;-85
2022/03/22 04:24:55;;;;;;;7.25;3.85;;;8.10;63.40;;;;;;4987562;28;20640;-85
2022/03/22 04:32:50;;;;;;;7.90;4.10;;;8.10;63.70;;;;;;4985496;28;20541;-85
2022/03/22 04:35:19;;;;;;;7.28;3.70;;;8.10;63.70;;;;;;4971411;28;20030;-84
2022/03/22 04:37:47;;;;;;;7.80;3.97;;;8.00;63.70;;;;;;4982302;28;20033;-84
2022/03/22 04:40:14;;;;;;;6.55;3.53;;;8.00;63.60;;;;;;4989507;28;20584;-84
2022/03/22 04:42:41;;;;;;;6.40;3.53;;;8.00;63.60;;;;;;4995503;28;20041;-85
2022/03/22 04:45:08;;;;;;;5.55;3.70;;;8.00;63.70;;;;;;5005012;28;20125;-84
2022/03/22 04:47:35;;;;;;;6.20;3.83;;;7.90;63.70;;;;;;4984604;28;20380;-84
2022/03/22 04:50:02;;;;;;;6.60;3.95;;;7.90;63.70;;;;;;4974225;28;20029;-84
2022/03/22 04:57:56;;;;;;;6.43;3.55;;;7.80;63.60;;;;;;5010532;28;20061;-84
2022/03/22 05:00:21;;;;;;;7.25;3.78;;;7.80;63.70;;;;;;4969170;28;20330;-85
2022/03/22 05:02:50;;;;;;;7.40;3.87;;;7.80;63.70;;;;;;4998423;28;20441;-85
2022/03/22 05:06:25;;;;;;;6.80;3.95;;;7.70;63.70;;;;;;4972423;28;20033;-85
2022/03/22 05:08:01;;;;;;;6.10;3.85;;;7.70;63.70;;;;;;5014170;28;20038;-84
2022/03/22 05:10:27;;;;;;;7.17;3.80;;;7.70;63.80;;;;;;4995648;28;20021;-84
2022/03/22 05:12:53;;;;;;;6.47;3.85;;;7.70;63.90;;;;;;4990634;28;20486;-84
2022/03/22 05:15:18;;;;;;;6.70;3.57;;;7.60;63.90;;;;;;4985074;28;20026;-84
2022/03/22 05:17:44;;;;;;;6.78;4.03;;;7.60;64.00;;;;;;5000081;28;20393;-85
2022/03/22 05:20:11;;;;;;;6.67;3.70;;;7.60;64.00;;;;;;4981357;28;20096;-85
2022/03/22 05:22:37;;;;;;;7.15;3.78;;;7.60;64.20;;;;;;5002592;28;20033;-84
2022/03/22 05:25:03;;;;;;;6.47;3.72;;;7.50;64.10;;;;;;4997134;28;20038;-85
2022/03/22 05:27:29;;;;;;;5.77;3.27;;;7.60;64.00;;;;;;5006742;28;20175;-85
2022/03/22 05:29:55;;;;;;;6.38;3.70;;;7.50;64.00;;;;;;5002420;28;20490;-84
2022/03/22 05:32:20;;;;;;;6.57;3.87;;;7.50;64.00;;;;;;4989826;28;20394;-84
2022/03/22 05:34:46;;;;;;;6.28;3.85;;;7.50;64.20;;;;;;5003354;28;20105;-85
2022/03/22 05:37:13;;;;;;;7.07;4.00;;;7.50;64.30;;;;;;4987653;28;20022;-85
2022/03/22 05:39:39;;;;;;;7.07;3.92;;;7.50;64.40;;;;;;5000900;28;20030;-84
2022/03/22 05:42:05;;;;;;;5.93;3.42;;;7.50;64.40;;;;;;4998035;28;20034;-85
2022/03/22 05:44:30;;;;;;;6.50;4.30;;;7.40;64.50;;;;;;4990950;28;20311;-84
2022/03/22 05:46:57;;;;;;;6.78;4.00;;;7.40;64.50;;;;;;4993749;28;20061;-84
2022/03/22 05:49:22;;;;;;;6.05;3.50;;;7.40;64.50;;;;;;4999973;28;20033;-85
2022/03/22 05:51:48;;;;;;;6.33;3.73;;;7.40;64.50;;;;;;4987890;28;20104;-84
2022/03/22 05:54:14;;;;;;;6.63;3.90;;;7.40;64.50;;;;;;4982577;28;20029;-85
2022/03/22 05:56:40;;;;;;;5.43;3.30;;;7.40;64.60;;;;;;5019638;28;20288;-85
2022/03/22 05:59:05;;;;;;;6.50;3.65;;;7.40;64.60;;;;;;4994599;28;20485;-85
2022/03/22 06:01:31;;;;;;;7.07;3.67;;;7.30;64.70;;;;;;4977146;28;20034;-85
2022/03/22 06:03:57;;;;;;;6.93;3.65;;;7.40;64.70;;;;;;5002178;28;20410;-85
2022/03/22 06:06:23;;;;;;;5.93;3.63;;;7.40;65.60;;;;;;4974126;28;20029;-85
2022/03/22 06:08:49;;;;;;;5.95;3.45;;;7.30;65.00;;;;;;4999405;28;20129;-84
2022/03/22 06:11:17;;;;;;;6.10;3.58;;;7.40;65.10;;;;;;4998569;28;20057;-85
2022/03/22 06:13:43;;;;;;;6.53;3.70;;;7.40;65.30;;;;;;5000441;28;20189;-85
2022/03/22 06:16:08;;;;;;;7.65;3.92;;;7.40;65.40;;;;;;4985618;28;20104;-85
2022/03/22 06:18:34;;;;;;;6.53;3.97;;;7.40;65.40;;;;;;4990149;28;20030;-84
2022/03/22 06:20:59;;;;;;;6.47;4.03;;;7.40;65.60;;;;;;4997594;28;20041;-84
2022/03/22 06:23:25;;;;;;;5.20;3.20;;;7.50;65.70;;;;;;4966048;28;20029;-84
2022/03/22 06:25:51;;;;;;;6.57;3.70;;;7.50;65.90;;;;;;5016841;28;20053;-84
2022/03/22 06:28:18;;;;;;;5.93;3.90;;;7.60;66.00;;;;;;4993057;28;20030;-84
2022/03/22 06:30:44;;;;;;;6.27;3.63;;;7.60;66.10;;;;;;4989190;28;20025;-84
2022/03/22 06:33:17;;;;;;;6.43;3.70;;;7.70;66.20;;;;;;4997823;28;20033;-84
2022/03/22 06:35:44;;;;;;;5.80;3.40;;;7.80;66.50;;;;;;5005987;28;20314;-83
2022/03/22 06:38:09;;;;;;;7.70;3.92;;;7.90;66.50;;;;;;4973914;28;20026;-84
2022/03/22 06:40:38;;;;;;;6.57;4.03;;;8.00;66.50;;;;;;5002301;28;20544;-83
2022/03/22 06:43:08;;;;;;;6.70;3.97;;;8.10;66.40;;;;;;4986127;28;20415;-83
2022/03/22 06:45:33;;;;;;;5.88;3.75;;;8.20;66.60;;;;;;4996282;28;20029;-84
2022/03/22 06:48:00;;;;;;;13.23;3.80;;;8.30;66.80;;;;;;4991815;28;20436;-84
2022/03/22 06:50:26;;;;;;;5.90;3.67;;;8.50;67.20;;;;;;4983481;28;20028;-84
2022/03/22 06:52:52;;;;;;;6.35;3.92;;;8.60;67.40;;;;;;4988634;28;20592;-84
2022/03/22 06:55:22;;;;;;;5.75;3.72;;;8.80;67.70;;;;;;4981638;28;20044;-84
2022/03/22 06:57:50;;;;;;;6.85;4.03;;;9.00;67.70;;;;;;4993248;28;22449;-84
2022/03/22 07:00:18;;;;;;;5.80;3.80;;;9.10;67.80;;;;;;4989732;28;20107;-84
2022/03/22 07:02:44;;;;;;;5.63;3.78;;;9.30;67.80;;;;;;5008709;28;20575;-84
2022/03/22 07:05:11;;;;;;;6.45;3.78;;;9.50;67.70;;;;;;4994238;28;20029;-84
2022/03/22 07:07:38;;;;;;;6.57;4.07;;;9.60;67.60;;;;;;5003881;28;20236;-84
2022/03/22 07:10:06;;;;;;;6.30;3.90;;;9.80;67.70;;;;;;4977400;28;20025;-84
2022/03/22 07:12:32;;;;;;;6.00;3.92;;;9.90;67.90;;;;;;5004135;28;20478;-84
2022/03/22 07:14:57;;;;;;;7.32;4.35;;;10.10;68.00;;;;;;4986971;28;20033;-85
2022/03/22 07:17:23;;;;;;;6.47;4.13;;;10.30;68.20;;;;;;4989475;28;20095;-84
2022/03/22 07:19:49;;;;;;;6.85;4.20;;;10.50;68.30;;;;;;5004107;28;20019;-84
2022/03/22 07:22:14;;;;;;;8.10;4.38;;;10.70;68.30;;;;;;4993667;28;20038;-84
2022/03/22 07:24:40;;;;;;;7.50;4.27;;;10.90;68.40;;;;;;4982332;28;20303;-85
2022/03/22 07:27:06;;;;;;;7.57;4.72;;;11.10;68.60;;;;;;4996221;28;20080;-85
2022/03/22 07:29:32;;;;;;;7.80;4.07;;;11.30;68.70;;;;;;4996008;28;20596;-84
2022/03/22 07:31:58;;;;;;;7.63;4.55;;;11.60;68.70;;;;;;4977413;28;20049;-84
2022/03/22 07:34:24;;;;;;;8.40;4.78;;;11.80;68.80;;;;;;5002709;28;20092;-84
2022/03/22 07:36:53;;;;;;;8.50;4.57;;;12.10;69.30;;;;;;5007258;28;20512;-84
2022/03/22 07:39:21;;;;;;;7.68;4.50;;;12.40;70.30;;;;;;4955048;28;20027;-85
2022/03/22 07:41:47;;;;;;;7.53;4.65;;;12.70;70.20;;;;;;4995723;28;20049;-85
2022/03/22 07:44:13;;;;;;;8.57;4.72;;;13.20;70.20;;;;;;4992175;28;20033;-85
2022/03/22 07:46:43;;;;;;;8.27;5.20;;;13.60;70.30;;;;;;4996368;28;20116;-84
2022/03/22 07:54:39;;;;;;;8.00;5.25;;;14.80;69.50;;;;;;5009130;28;20314;-85
2022/03/22 07:57:07;;;;;;;8.68;5.30;;;15.30;68.90;;;;;;4979408;28;20033;-85
2022/03/22 07:59:33;;;;;;;9.30;5.73;;;15.60;68.40;;;;;;4990345;28;20223;-84
2022/03/22 08:01:58;;;;;;;9.27;5.68;;;15.90;68.40;;;;;;4996239;28;20029;-85
2022/03/22 08:04:24;;;;;;;7.97;5.53;;;16.20;68.20;;;;;;4981160;28;20029;-85
2022/03/22 08:06:50;;;;;;;8.40;5.37;;;16.60;68.10;;;;;;4997962;28;20034;-85
2022/03/22 08:09:15;;;;;;;8.50;5.38;;;16.90;68.20;;;;;;5011403;28;20236;-85
2022/03/22 08:11:42;;;;;;;8.87;5.73;;;17.30;68.50;;;;;;4978963;28;20398;-85
2022/03/22 08:14:08;;;;;;;9.52;5.78;;;17.60;67.60;;;;;;5010392;28;20435;-85
2022/03/22 08:16:36;;;;;;;10.27;6.10;;;17.90;67.30;;;;;;5011204;28;20026;-85
2022/03/22 08:19:05;;;;;;;8.50;5.65;;;18.30;66.60;;;;;;4993006;28;20167;-85
2022/03/22 08:21:31;;;;;;;8.85;6.28;;;18.60;66.20;;;;;;4993211;28;20040;-85
2022/03/22 08:23:58;;;;;;;8.55;5.65;;;18.90;65.70;;;;;;4974285;28;20063;-85
2022/03/22 08:26:24;;;;;;;7.75;5.38;;;19.30;65.70;;;;;;4983866;28;20095;-85
2022/03/22 08:28:50;;;;;;;8.40;5.37;;;19.60;65.40;;;;;;4990328;28;20486;-85
2022/03/22 08:31:16;;;;;;;7.82;5.28;;;19.90;64.90;;;;;;5002308;28;20076;-85
2022/03/22 08:33:41;;;;;;;8.32;5.70;;;20.30;64.50;;;;;;4981475;28;20036;-85
2022/03/22 08:36:07;;;;;;;8.67;5.50;;;20.60;63.90;;;;;;5002664;28;20557;-85
2022/03/22 08:38:34;;;;;;;8.60;5.00;;;21.00;63.80;;;;;;4980087;28;20036;-85
2022/03/22 08:41:01;;;;;;;9.15;5.40;;;21.30;63.50;;;;;;4980362;28;20122;-85
2022/03/22 08:43:27;;;;;;;7.85;5.30;;;21.60;62.50;;;;;;4982312;28;20142;-86
2022/03/22 08:45:54;;;;;;;8.20;5.60;;;21.90;62.30;;;;;;4991263;28;20083;-85
2022/03/22 08:48:21;;;;;;;9.52;5.18;;;22.30;61.80;;;;;;4989845;28;20031;-85
2022/03/22 08:50:49;;;;;;;9.40;5.88;;;22.60;61.10;;;;;;4987289;28;20037;-85
2022/03/22 08:53:16;;;;;;;6.75;5.07;;;22.90;60.00;;;;;;5001365;28;20037;-85
2022/03/22 08:55:52;;;;;;;6.88;5.38;;;23.20;59.60;;;;;;5004889;28;20091;-85
2022/03/22 08:58:18;;;;;;;7.13;5.17;;;23.40;58.80;;;;;;5010987;28;20482;-85
2022/03/22 09:00:47;;;;;;;7.95;6.05;;;23.60;58.30;;;;;;4985916;28;20037;-85
2022/03/22 09:03:12;;;;;;;8.20;5.53;;;23.80;58.30;;;;;;5007939;28;20077;-84
2022/03/22 09:08:22;;;;;;;7.55;5.80;;;24.20;56.60;;;;;;5006116;28;20521;-84
2022/03/22 09:10:50;;;;;;;8.23;5.47;;;24.50;56.10;;;;;;4967308;28;20030;-84
2022/03/22 09:13:16;;;;;;;8.57;5.72;;;24.60;55.40;;;;;;5001802;28;20458;-85
2022/03/22 09:15:43;;;;;;;8.30;5.67;;;24.80;54.90;;;;;;4984369;28;20482;-85
2022/03/22 09:18:15;;;;;;;7.80;5.55;;;25.00;54.70;;;;;;4981046;28;20236;-85
2022/03/22 09:20:42;;;;;;;6.30;4.63;;;25.10;54.40;;;;;;5002411;28;20232;-85
2022/03/22 09:23:08;;;;;;;8.25;5.45;;;25.40;54.10;;;;;;5001252;28;20545;-85
2022/03/22 09:25:34;;;;;;;7.05;5.03;;;25.60;53.30;;;;;;4972605;28;20037;-85
2022/03/22 09:28:00;;;;;;;6.60;5.30;;;25.70;52.90;;;;;;5007420;28;20073;-85
2022/03/22 09:30:27;;;;;;;7.25;5.03;;;25.90;52.40;;;;;;4986233;28;20497;-85
2022/03/22 09:32:53;;;;;;;7.03;4.72;;;26.10;51.40;;;;;;4978085;28;20087;-85
2022/03/22 09:35:19;;;;;;;7.90;5.50;;;26.20;51.60;;;;;;5002849;28;20022;-85
2022/03/22 09:37:46;;;;;;;7.80;5.55;;;26.40;50.60;;;;;;4978827;28;21080;-85
2022/03/22 09:40:13;;;;;;;7.63;5.10;;;26.50;49.90;;;;;;4981602;28;20286;-85
2022/03/22 09:42:42;;;;;;;8.43;5.40;;;26.70;49.90;;;;;;4985803;28;20041;-85
2022/03/22 09:45:09;;;;;;;8.57;5.67;;;27.00;49.60;;;;;;4974969;28;20026;-85
2022/03/22 09:47:37;;;;;;;7.47;5.28;;;27.20;48.70;;;;;;4963050;28;20393;-85
2022/03/22 09:50:04;;;;;;;6.85;5.03;;;27.40;48.50;;;;;;4989260;28;20039;-85
2022/03/22 09:52:31;;;;;;;8.45;5.32;;;27.60;48.60;;;;;;4994433;28;20071;-85
2022/03/22 09:54:56;;;;;;;8.13;5.15;;;27.80;48.30;;;;;;4989219;28;20193;-85
2022/03/22 09:57:22;;;;;;;7.80;5.03;;;28.10;48.20;;;;;;4990961;28;20465;-85
2022/03/22 09:59:48;;;;;;;6.45;4.78;;;28.40;47.40;;;;;;5001374;28;20295;-86
2022/03/22 10:02:13;;;;;;;8.33;5.03;;;28.60;47.20;;;;;;4990455;28;20522;-85
2022/03/22 10:04:43;;;;;;;7.07;5.03;;;28.80;46.60;;;;;;5006484;28;20387;-85
2022/03/22 10:07:17;;;;;;;7.30;5.45;;;29.00;45.00;;;;;;5008841;28;20125;-85
2022/03/22 10:09:54;;;;;;;6.80;5.00;;;29.20;42.80;;;;;;4983367;28;20056;-85
2022/03/22 10:12:36;;;;;;;7.80;5.28;;;29.50;44.00;;;;;;4975134;28;20022;-85
2022/03/22 10:15:16;;;;;;;7.32;5.57;;;29.80;42.40;;;;;;4992017;28;20379;-85
2022/03/22 10:17:43;;;;;;;8.27;5.07;;;30.10;41.80;;;;;;4983867;28;20033;-86
2022/03/22 10:20:21;;;;;;;7.13;4.93;;;30.30;44.20;;;;;;4975665;28;20062;-86
2022/03/22 10:22:58;;;;;;;9.60;5.30;;;30.50;41.70;;;;;;5000640;28;20641;-86
2022/03/22 10:25:24;;;;;;;9.45;5.10;;;30.80;41.90;;;;;;5014810;28;20049;-86
2022/03/22 10:27:54;;;;;;;7.77;5.13;;;31.00;43.70;;;;;;4982684;28;20441;-86
2022/03/22 10:30:20;;;;;;;8.13;5.72;;;31.20;41.80;;;;;;4977082;28;20506;-86
2022/03/22 10:32:51;;;;;;;6.30;5.25;;;31.40;41.90;;;;;;4953744;28;20069;-86
2022/03/22 10:35:24;;;;;;;8.10;5.55;;;31.60;41.20;;;;;;4967279;28;20035;-86
2022/03/22 10:37:52;;;;;;;7.35;5.15;;;31.80;39.20;;;;;;4997773;28;20037;-85
2022/03/22 10:40:34;;;;;;;8.00;6.03;;;31.90;40.20;;;;;;5007759;28;20109;-86
2022/03/22 10:43:09;;;;;;;7.90;5.53;;;32.00;36.80;;;;;;4974013;28;20067;-85
2022/03/22 10:46:01;;;;;;;7.25;5.68;;;32.20;37.70;;;;;;4986166;28;20577;-85
2022/03/22 10:48:30;;;;;;;7.68;5.68;;;32.30;34.50;;;;;;4979761;28;20053;-86
2022/03/22 10:50:59;;;;;;;8.43;5.47;;;32.40;38.00;;;;;;4992956;28;20277;-86
2022/03/22 10:53:26;;;;;;;8.40;5.53;;;32.50;37.90;;;;;;4989106;28;20032;-86
2022/03/22 10:55:52;;;;;;;7.70;5.55;;;32.60;38.10;;;;;;5003389;28;20525;-86
2022/03/22 10:58:21;;;;;;;7.80;5.03;;;32.70;37.70;;;;;;4991475;28;20474;-85
2022/03/22 11:00:49;;;;;;;6.97;5.03;;;32.90;37.00;;;;;;5004294;28;20510;-85
2022/03/22 11:03:17;;;;;;;8.02;5.60;;;33.00;36.80;;;;;;4984461;28;20022;-85
2022/03/22 11:05:50;;;;;;;8.67;6.17;;;33.00;36.10;;;;;;4990034;28;20026;-85
2022/03/22 11:08:25;;;;;;;7.80;5.28;;;33.20;34.90;;;;;;4982585;28;20565;-86
2022/03/22 11:10:53;;;;;;;6.60;5.43;;;33.20;34.50;;;;;;5007366;28;20025;-86
2022/03/22 11:13:19;;;;;;;7.97;5.20;;;33.30;35.50;;;;;;5006872;28;20247;-86
2022/03/22 11:15:47;;;;;;;7.93;5.07;;;33.30;35.20;;;;;;4998986;28;20034;-85
2022/03/22 11:18:15;;;;;;;8.17;5.03;;;33.50;35.00;;;;;;4965539;28;20276;-85
2022/03/22 11:20:58;;;;;;;7.35;5.50;;;33.60;34.50;;;;;;4983885;28;20029;-85
2022/03/22 11:23:34;;;;;;;7.57;5.00;;;33.70;32.00;;;;;;4983494;28;20026;-86
2022/03/22 11:26:07;;;;;;;7.95;5.20;;;33.90;33.80;;;;;;4969767;28;20042;-85
2022/03/22 11:28:34;;;;;;;7.93;5.00;;;33.90;33.20;;;;;;4990095;28;20029;-86
2022/03/22 11:31:00;;;;;;;6.20;4.70;;;34.00;33.20;;;;;;4993818;28;20034;-86
2022/03/22 11:36:15;;;;;;;6.88;5.07;;;34.20;33.00;;;;;;4983532;28;20099;-85
2022/03/22 11:38:41;;;;;;;7.32;5.18;;;34.30;32.10;;;;;;4987932;28;20128;-86
2022/03/22 11:44:36;;;;;;;7.80;5.13;;;34.50;29.60;;;;;;4980124;28;20501;-86
2022/03/22 11:47:08;;;;;;;8.35;5.20;;;34.60;29.70;;;;;;4983029;28;20096;-86
2022/03/22 11:49:49;;;;;;;7.82;5.55;;;34.70;30.80;;;;;;5011433;28;20032;-86
2022/03/22 11:52:15;;;;;;;8.13;4.97;;;34.80;29.30;;;;;;4999136;28;20108;-86
2022/03/22 11:54:59;;;;;;;9.65;5.57;;;34.90;31.00;;;;;;5001152;28;20046;-85
2022/03/22 11:57:26;;;;;;;7.85;5.55;;;34.80;29.00;;;;;;5001049;28;20101;-84
2022/03/22 11:59:52;;;;;;;8.52;5.50;;;34.80;29.70;;;;;;4997013;28;20026;-83
2022/03/22 12:02:22;;;;;;;7.32;5.72;;;34.70;29.70;;;;;;4981052;28;20030;-83
2022/03/22 12:04:57;;;;;;;7.90;5.20;;;34.60;29.50;;;;;;4977669;28;20127;-83
2022/03/22 12:07:32;;;;;;;7.82;5.13;;;34.60;28.80;;;;;;4960725;28;20120;-83
2022/03/22 12:10:24;;;;;;;6.43;4.97;;;34.70;28.50;;;;;;5008944;28;20441;-83
2022/03/22 12:12:50;;;;;;;7.75;5.28;;;34.80;28.30;;;;;;4994243;28;20048;-83
2022/03/22 12:15:21;;;;;;;7.15;5.13;;;34.80;29.80;;;;;;4996125;28;20033;-83
2022/03/22 12:17:47;;;;;;;7.93;5.13;;;34.80;28.80;;;;;;4998843;28;20048;-83
2022/03/22 12:20:15;;;;;;;7.70;5.20;;;34.80;29.50;;;;;;4975969;28;20030;-83
2022/03/22 12:22:45;;;;;;;6.97;5.25;;;35.00;29.20;;;;;;4986093;28;20044;-83
2022/03/22 12:25:15;;;;;;;7.88;5.70;;;35.00;28.30;;;;;;5005757;28;20038;-83
2022/03/22 12:28:00;;;;;;;7.68;5.40;;;35.10;28.60;;;;;;4989051;28;20356;-83
2022/03/22 12:30:37;;;;;;;7.33;4.90;;;35.10;27.40;;;;;;4977231;28;20038;-83
2022/03/22 12:33:10;;;;;;;7.60;5.25;;;35.10;27.30;;;;;;5004050;28;20491;-83
2022/03/22 12:35:37;;;;;;;8.32;6.10;;;35.10;28.50;;;;;;4981197;28;20061;-83
2022/03/22 12:38:04;;;;;;;6.82;5.32;;;35.10;27.70;;;;;;4999343;28;20088;-84
2022/03/22 12:40:30;;;;;;;9.10;5.97;;;35.00;28.20;;;;;;4971705;28;20037;-84
2022/03/22 12:42:57;;;;;;;8.20;5.33;;;35.00;28.20;;;;;;5014228;28;20030;-84
2022/03/22 12:45:26;;;;;;;7.82;5.88;;;35.10;28.60;;;;;;4992725;28;20041;-83
2022/03/22 12:47:53;;;;;;;8.18;6.00;;;35.20;27.80;;;;;;4994361;28;20441;-84
2022/03/22 12:50:21;;;;;;;7.82;5.75;;;35.20;27.90;;;;;;4988494;28;20038;-83
2022/03/22 12:52:48;;;;;;;8.45;5.28;;;35.20;27.50;;;;;;4976007;28;20412;-83
2022/03/22 12:55:15;;;;;;;7.83;5.13;;;35.10;27.60;;;;;;4982702;28;20245;-83
2022/03/22 12:57:46;;;;;;;5.90;4.28;;;35.10;27.10;;;;;;4987612;28;20053;-83
2022/03/22 13:00:25;;;;;;;5.88;4.55;;;34.90;27.10;;;;;;4976200;28;20376;-83
2022/03/22 13:02:51;;;;;;;6.20;3.88;;;34.80;26.40;;;;;;4978732;28;20052;-83
2022/03/22 13:05:24;;;;;;;7.33;4.93;;;34.80;27.70;;;;;;5006432;28;20085;-82
2022/03/22 13:07:49;;;;;;;6.28;4.63;;;34.70;26.90;;;;;;4979028;28;20258;-83
2022/03/22 13:12:59;;;;;;;8.80;5.40;;;34.50;27.10;;;;;;4997087;28;20034;-82
2022/03/22 13:15:25;;;;;;;6.90;4.83;;;34.30;26.80;;;;;;4991427;28;20030;-83
2022/03/22 13:17:52;;;;;;;8.18;5.38;;;34.20;26.40;;;;;;4995656;28;20030;-83
2022/03/22 13:20:27;;;;;;;7.03;4.77;;;34.00;26.30;;;;;;5007969;28;20041;-83
2022/03/22 13:22:56;;;;;;;6.68;4.90;;;33.80;26.00;;;;;;4995747;28;20053;-83
2022/03/22 13:25:30;;;;;;;6.72;4.80;;;33.80;27.00;;;;;;4970354;28;20521;-82
2022/03/22 13:27:58;;;;;;;6.15;4.57;;;33.80;27.20;;;;;;5009135;28;20162;-83
2022/03/22 13:30:26;;;;;;;6.53;4.15;;;33.70;26.70;;;;;;4986273;28;20034;-83
2022/03/22 13:32:52;;;;;;;6.37;4.33;;;33.70;26.70;;;;;;4994868;28;20044;-83